Terminal Aerodrome Forecast
Issued by NWS

Home | Current Version | Previous Version | Text Only | Print | Product List | Glossary On
Versions: 1 2 3 4 5 6 7 8 9 10 11 12 13 14 15 16 17 18 19 20 21
309
FTUS42 KKEY 201349 AAA
TAFMTH
TAF AMD
KMTH 201349Z 2014/2112 05010G17KT P6SM VCSH SCT025 BKN050
      TEMPO 2014/2016 4SM SHRA BKN020
     FM201800 07012G21KT P6SM SCT025
     FM210600 07011KT P6SM VCSH SCT022 SCT050=

USA.gov is the U.S. government's official web portal to all federal, state and local government web resources and services.